Time;durP1;ratioP1;P1;durP2;ratioP2;P2;SDS_P1;SDS_P2;PMS_P1;PMS_P2;Temp;Humidity;BMP_temperature;BMP_pressure;BME280_temperature;BME280_humidity;BME280_pressure;Samples;Min_cycle;Max_cycle;Signal;HPM_P1;HPM_P2
2022/10/09 00:00:17;;;;;;;;;;;;;;;9.26;100.00;98617.59;7387262;19;19918;-60
2022/10/09 00:02:50;;;;;;;;;;;;;;;9.22;100.00;98618.66;7386828;19;19915;-61
2022/10/09 00:05:22;;;;;;;;;;;;;;;9.08;100.00;98613.28;7377319;19;20238;-61
2022/10/09 00:07:52;;;;;;;;;;;;;;;9.11;100.00;98625.41;7387172;19;19981;-60
2022/10/09 00:10:21;;;;;;;;;;;;;;;9.23;100.00;98627.41;7382277;19;19922;-61
2022/10/09 00:12:54;;;;;;;;;;;;;;;8.90;100.00;98629.03;7379109;19;20343;-61
2022/10/09 00:15:24;;;;;;;;;;;;;;;8.98;100.00;98634.78;7382351;19;19923;-61
2022/10/09 00:17:53;;;;;;;;;;;;;;;8.96;100.00;98639.25;7384252;19;19919;-62
2022/10/09 00:20:23;;;;;;;;;;;;;;;9.19;100.00;98639.84;7379518;19;19922;-62
2022/10/09 00:22:53;;;;;;;;;;;;;;;8.99;100.00;98639.09;7383940;19;19911;-61
2022/10/09 00:25:24;;;;;;;;;;;;;;;8.81;100.00;98655.75;7384267;19;19913;-61
2022/10/09 00:27:58;;;;;;;;;;;;;;;8.85;100.00;98638.91;7377003;19;19925;-60
2022/10/09 00:30:29;;;;;;;;;;;;;;;8.61;100.00;98632.19;7383826;19;19925;-62
2022/10/09 00:32:59;;;;;;;;;;;;;;;8.95;100.00;98646.28;7385868;19;19915;-66
2022/10/09 00:35:29;;;;;;;;;;;;;;;8.70;100.00;98658.00;7383268;19;19910;-60
2022/10/09 00:37:58;;;;;;;;;;;;;;;9.05;100.00;98657.16;7384620;19;19921;-61
2022/10/09 00:40:29;;;;;;;;;;;;;;;8.95;100.00;98661.16;7379787;19;19927;-66
2022/10/09 00:43:01;;;;;;;;;;;;;;;8.91;100.00;98659.59;7382805;19;20031;-61
2022/10/09 00:45:32;;;;;;;;;;;;;;;8.59;100.00;98660.28;7384222;19;20343;-60
2022/10/09 00:48:03;;;;;;;;;;;;;;;8.75;100.00;98661.25;7379449;19;20337;-67
2022/10/09 00:50:37;;;;;;;;;;;;;;;9.19;100.00;98662.63;7382756;19;19919;-61
2022/10/09 00:53:10;;;;;;;;;;;;;;;8.37;100.00;98659.56;7384279;19;19917;-61
2022/10/09 00:55:42;;;;;;;;;;;;;;;8.40;100.00;98669.88;7375793;19;20388;-61
2022/10/09 00:58:18;;;;;;;;;;;;;;;8.42;100.00;98668.91;7381822;19;19974;-61
2022/10/09 01:00:48;;;;;;;;;;;;;;;8.73;100.00;98673.59;7383146;19;20246;-65
2022/10/09 01:03:18;;;;;;;;;;;;;;;8.34;100.00;98675.44;7382514;19;19921;-61
2022/10/09 01:05:53;;;;;;;;;;;;;;;8.25;100.00;98671.44;7383264;19;19941;-63
2022/10/09 01:08:26;;;;;;;;;;;;;;;8.03;100.00;98671.56;7377420;19;19986;-65
2022/10/09 01:11:02;;;;;;;;;;;;;;;8.13;100.00;98679.00;7390586;19;19922;-61
2022/10/09 01:13:38;;;;;;;;;;;;;;;8.12;100.00;98666.81;7390764;19;20591;-60
2022/10/09 01:16:13;;;;;;;;;;;;;;;8.02;100.00;98663.75;7391251;19;19941;-61
2022/10/09 01:18:45;;;;;;;;;;;;;;;8.09;100.00;98662.56;7391561;19;19925;-61
2022/10/09 01:21:18;;;;;;;;;;;;;;;8.08;100.00;98674.81;7386823;19;19915;-61
2022/10/09 01:24:00;;;;;;;;;;;;;;;7.78;100.00;98667.41;7389567;19;19910;-61
2022/10/09 01:26:45;;;;;;;;;;;;;;;7.86;100.00;98670.56;7390791;19;19942;-65
2022/10/09 01:29:20;;;;;;;;;;;;;;;7.85;100.00;98672.34;7390918;19;19919;-61
2022/10/09 01:31:52;;;;;;;;;;;;;;;7.72;100.00;98678.16;7387751;19;19935;-67
2022/10/09 01:34:25;;;;;;;;;;;;;;;7.66;100.00;98679.25;7391521;19;19921;-60
2022/10/09 01:36:57;;;;;;;;;;;;;;;7.67;100.00;98680.09;7391256;19;20349;-61
2022/10/09 01:39:27;;;;;;;;;;;;;;;7.57;100.00;98681.41;7383503;19;20338;-60
2022/10/09 01:41:57;;;;;;;;;;;;;;;7.75;100.00;98685.84;7391348;19;19932;-61
2022/10/09 01:44:30;;;;;;;;;;;;;;;7.78;100.00;98691.84;7390289;19;19978;-61
2022/10/09 01:47:00;;;;;;;;;;;;;;;7.77;100.00;98689.31;7386580;19;19922;-61
2022/10/09 01:49:35;;;;;;;;;;;;;;;7.70;100.00;98691.31;7390312;19;20327;-65
2022/10/09 01:52:07;;;;;;;;;;;;;;;7.49;100.00;98694.81;7392391;19;20327;-61
2022/10/09 01:54:45;;;;;;;;;;;;;;;7.46;100.00;98688.88;7388684;19;19911;-61
2022/10/09 01:57:16;;;;;;;;;;;;;;;7.30;100.00;98696.47;7391617;19;19918;-62
2022/10/09 01:59:55;;;;;;;;;;;;;;;7.35;100.00;98699.75;7387292;19;20228;-61
2022/10/09 02:02:25;;;;;;;;;;;;;;;7.61;100.00;98699.53;7390510;19;19925;-62
2022/10/09 02:04:56;;;;;;;;;;;;;;;7.30;100.00;98699.09;7389255;19;19933;-61
2022/10/09 02:07:27;;;;;;;;;;;;;;;7.14;100.00;98703.25;7389414;19;19911;-61
2022/10/09 02:09:58;;;;;;;;;;;;;;;7.27;100.00;98707.06;7391584;19;19948;-60
2022/10/09 02:12:30;;;;;;;;;;;;;;;7.31;100.00;98715.63;7389305;19;19962;-67
2022/10/09 02:15:02;;;;;;;;;;;;;;;7.25;100.00;98711.50;7391859;19;19976;-61
2022/10/09 02:17:34;;;;;;;;;;;;;;;7.15;100.00;98710.19;7390813;19;19923;-60
2022/10/09 02:20:07;;;;;;;;;;;;;;;7.19;100.00;98713.50;7385767;19;19919;-61
2022/10/09 02:22:39;;;;;;;;;;;;;;;7.15;100.00;98720.66;7389919;19;19919;-61
2022/10/09 02:25:09;;;;;;;;;;;;;;;7.08;100.00;98727.03;7389471;19;19939;-60
2022/10/09 02:27:39;;;;;;;;;;;;;;;7.14;100.00;98734.66;7386001;19;19970;-60
2022/10/09 02:30:12;;;;;;;;;;;;;;;7.13;100.00;98732.09;7388020;19;19919;-60
2022/10/09 02:32:43;;;;;;;;;;;;;;;7.04;100.00;98738.53;7389264;19;20265;-61
2022/10/09 02:35:13;;;;;;;;;;;;;;;7.10;100.00;98738.28;7387891;19;19918;-62
2022/10/09 02:37:43;;;;;;;;;;;;;;;7.21;100.00;98735.25;7391554;19;19930;-61
2022/10/09 02:40:13;;;;;;;;;;;;;;;6.91;100.00;98734.69;7387932;19;20269;-67
2022/10/09 02:42:43;;;;;;;;;;;;;;;6.92;100.00;98746.88;7388409;19;19910;-61
2022/10/09 02:45:18;;;;;;;;;;;;;;;7.01;100.00;98749.13;7387399;19;19914;-61
2022/10/09 02:47:48;;;;;;;;;;;;;;;6.88;100.00;98747.88;7384510;19;19926;-66
2022/10/09 02:50:19;;;;;;;;;;;;;;;6.87;100.00;98747.94;7388416;19;20368;-63
2022/10/09 02:52:50;;;;;;;;;;;;;;;6.74;100.00;98755.41;7388905;19;19914;-61
2022/10/09 02:55:20;;;;;;;;;;;;;;;6.56;100.00;98763.94;7385786;19;19918;-62
2022/10/09 02:57:50;;;;;;;;;;;;;;;6.63;100.00;98754.94;7389321;19;19982;-61
2022/10/09 03:00:21;;;;;;;;;;;;;;;6.61;100.00;98763.72;7388388;19;19953;-61
2022/10/09 03:02:51;;;;;;;;;;;;;;;6.63;100.00;98761.94;7383816;19;20298;-62
2022/10/09 03:05:20;;;;;;;;;;;;;;;6.56;100.00;98761.31;7387356;19;19914;-60
2022/10/09 03:07:53;;;;;;;;;;;;;;;6.86;100.00;98765.41;7388390;19;19917;-60
2022/10/09 03:10:23;;;;;;;;;;;;;;;6.58;100.00;98777.78;7383826;19;19918;-60
2022/10/09 03:12:52;;;;;;;;;;;;;;;6.80;100.00;98783.91;7389717;19;19911;-62
2022/10/09 03:15:25;;;;;;;;;;;;;;;6.43;100.00;98790.56;7388935;19;19919;-61
2022/10/09 03:17:55;;;;;;;;;;;;;;;6.51;100.00;98784.13;7383694;19;19921;-61
2022/10/09 03:20:24;;;;;;;;;;;;;;;6.78;100.00;98783.16;7388983;19;19926;-61
2022/10/09 03:22:55;;;;;;;;;;;;;;;6.61;100.00;98792.50;7388892;19;19922;-61
2022/10/09 03:25:24;;;;;;;;;;;;;;;6.40;100.00;98791.50;7381157;19;19922;-61
2022/10/09 03:27:54;;;;;;;;;;;;;;;6.56;100.00;98789.19;7388145;19;19922;-61
2022/10/09 03:30:32;;;;;;;;;;;;;;;6.46;100.00;98796.53;7387910;19;19911;-61
2022/10/09 03:33:07;;;;;;;;;;;;;;;6.43;100.00;98804.47;7379718;19;20356;-61
2022/10/09 03:35:37;;;;;;;;;;;;;;;6.49;100.00;98806.88;7388173;19;20411;-61
2022/10/09 03:38:06;;;;;;;;;;;;;;;6.24;100.00;98807.78;7383478;19;19919;-60
2022/10/09 03:40:38;;;;;;;;;;;;;;;6.22;100.00;98815.69;7387564;19;20255;-61
2022/10/09 03:43:08;;;;;;;;;;;;;;;6.33;100.00;98810.09;7387550;19;20015;-61
2022/10/09 03:45:40;;;;;;;;;;;;;;;6.21;100.00;98815.75;7380802;19;20233;-61
2022/10/09 03:48:12;;;;;;;;;;;;;;;6.21;100.00;98811.34;7386870;19;19915;-61
2022/10/09 03:50:43;;;;;;;;;;;;;;;6.23;100.00;98817.41;7386902;19;19918;-63
2022/10/09 03:53:13;;;;;;;;;;;;;;;6.18;100.00;98821.91;7383073;19;19914;-62
2022/10/09 03:55:43;;;;;;;;;;;;;;;6.17;100.00;98816.75;7387971;19;19906;-62
2022/10/09 03:58:15;;;;;;;;;;;;;;;6.17;100.00;98814.97;7387563;19;19926;-60
2022/10/09 04:00:48;;;;;;;;;;;;;;;6.16;100.00;98820.25;7386198;19;19915;-60
2022/10/09 04:03:18;;;;;;;;;;;;;;;6.02;100.00;98822.47;7387415;19;19915;-60
2022/10/09 04:05:48;;;;;;;;;;;;;;;6.00;100.00;98822.56;7384454;19;19990;-62
2022/10/09 04:08:18;;;;;;;;;;;;;;;6.06;100.00;98831.94;7387252;19;20100;-60
2022/10/09 04:10:47;;;;;;;;;;;;;;;5.94;100.00;98833.19;7386111;19;19921;-60
2022/10/09 04:13:17;;;;;;;;;;;;;;;6.23;100.00;98824.38;7385024;19;19915;-67
2022/10/09 04:15:54;;;;;;;;;;;;;;;5.85;100.00;98827.38;7386298;19;20256;-61
2022/10/09 04:18:24;;;;;;;;;;;;;;;5.95;100.00;98841.88;7385972;19;20367;-61
2022/10/09 04:20:54;;;;;;;;;;;;;;;5.91;100.00;98838.50;7382182;19;19931;-61
2022/10/09 04:23:25;;;;;;;;;;;;;;;5.98;100.00;98844.38;7388065;19;19915;-60
2022/10/09 04:25:55;;;;;;;;;;;;;;;5.98;100.00;98840.00;7384183;19;19911;-60
2022/10/09 04:28:25;;;;;;;;;;;;;;;5.72;100.00;98837.38;7382365;19;20323;-60
2022/10/09 04:30:59;;;;;;;;;;;;;;;5.89;100.00;98836.81;7386691;19;19919;-60
2022/10/09 04:33:29;;;;;;;;;;;;;;;5.86;100.00;98848.22;7386479;19;20360;-61
2022/10/09 04:35:59;;;;;;;;;;;;;;;5.80;100.00;98851.03;7381798;19;19922;-61
2022/10/09 04:38:29;;;;;;;;;;;;;;;5.97;100.00;98859.22;7385670;19;19907;-61
2022/10/09 04:40:59;;;;;;;;;;;;;;;6.25;100.00;98854.75;7386430;19;19915;-63
2022/10/09 04:43:33;;;;;;;;;;;;;;;6.07;100.00;98860.59;7384274;19;19918;-60
2022/10/09 04:46:08;;;;;;;;;;;;;;;5.83;100.00;98861.38;7389119;19;19919;-61
2022/10/09 04:48:42;;;;;;;;;;;;;;;5.98;100.00;98860.91;7385804;19;19915;-63
2022/10/09 04:51:12;;;;;;;;;;;;;;;6.20;100.00;98866.25;7392059;19;19923;-61
2022/10/09 04:53:41;;;;;;;;;;;;;;;5.86;100.00;98871.72;7393010;19;19917;-60
2022/10/09 04:56:12;;;;;;;;;;;;;;;5.86;100.00;98876.94;7388647;19;19915;-61
2022/10/09 04:58:42;;;;;;;;;;;;;;;5.81;100.00;98875.38;7393074;19;20515;-61
2022/10/09 05:01:16;;;;;;;;;;;;;;;5.75;100.00;98878.19;7395066;19;19982;-60
2022/10/09 05:03:46;;;;;;;;;;;;;;;5.94;100.00;98871.50;7383552;19;19915;-63
2022/10/09 05:06:16;;;;;;;;;;;;;;;5.97;100.00;98889.69;7390777;19;19921;-60
2022/10/09 05:08:48;;;;;;;;;;;;;;;5.95;100.00;98887.13;7392778;19;19947;-63
2022/10/09 05:11:20;;;;;;;;;;;;;;;5.90;100.00;98894.22;7388439;19;19919;-61
2022/10/09 05:13:51;;;;;;;;;;;;;;;6.07;100.00;98893.72;7392111;19;19921;-62
2022/10/09 05:16:25;;;;;;;;;;;;;;;6.10;100.00;98896.25;7390062;19;20239;-67
2022/10/09 05:18:58;;;;;;;;;;;;;;;6.18;100.00;98889.00;7390101;19;19918;-61
2022/10/09 05:21:28;;;;;;;;;;;;;;;5.87;100.00;98898.69;7392204;19;19915;-61
2022/10/09 05:23:59;;;;;;;;;;;;;;;6.10;100.00;98904.91;7386907;19;19919;-62
2022/10/09 05:26:29;;;;;;;;;;;;;;;6.10;100.00;98902.28;7392241;19;19938;-60
2022/10/09 05:28:59;;;;;;;;;;;;;;;6.00;100.00;98908.75;7391771;19;19914;-60
2022/10/09 05:31:32;;;;;;;;;;;;;;;5.97;100.00;98916.66;7387546;19;19934;-60
2022/10/09 05:34:05;;;;;;;;;;;;;;;6.09;100.00;98920.63;7391750;19;19931;-61
2022/10/09 05:36:37;;;;;;;;;;;;;;;5.99;100.00;98922.69;7388741;19;19933;-61
2022/10/09 05:39:06;;;;;;;;;;;;;;;6.07;100.00;98928.50;7389187;19;19918;-61
2022/10/09 05:41:36;;;;;;;;;;;;;;;6.13;100.00;98928.31;7391317;19;20015;-61
2022/10/09 05:44:05;;;;;;;;;;;;;;;6.16;100.00;98933.47;7391458;19;19945;-60
2022/10/09 05:46:38;;;;;;;;;;;;;;;6.30;100.00;98940.84;7389398;19;20013;-60
2022/10/09 05:49:08;;;;;;;;;;;;;;;6.36;100.00;98941.50;7391340;19;19943;-61
2022/10/09 05:51:41;;;;;;;;;;;;;;;6.29;100.00;98950.44;7390109;19;19943;-67
2022/10/09 05:54:15;;;;;;;;;;;;;;;6.29;100.00;98942.59;7392424;19;19931;-61
2022/10/09 05:56:46;;;;;;;;;;;;;;;6.46;100.00;98942.91;7388873;19;19919;-60
2022/10/09 05:59:18;;;;;;;;;;;;;;;6.80;100.00;98943.47;7386157;19;19922;-61
2022/10/09 06:01:54;;;;;;;;;;;;;;;6.41;100.00;98941.34;7387961;19;20010;-65
2022/10/09 06:04:32;;;;;;;;;;;;;;;6.50;100.00;98949.72;7381869;19;19966;-62
2022/10/09 06:07:02;;;;;;;;;;;;;;;6.58;100.00;98954.72;7389513;19;19915;-61
2022/10/09 06:09:31;;;;;;;;;;;;;;;6.66;100.00;98961.38;7389442;19;19939;-60
2022/10/09 06:12:01;;;;;;;;;;;;;;;6.63;100.00;98951.06;7385445;19;19922;-66
2022/10/09 06:14:33;;;;;;;;;;;;;;;6.82;100.00;98959.09;7389040;19;19914;-62
2022/10/09 06:17:06;;;;;;;;;;;;;;;6.82;100.00;98959.09;7389419;19;19921;-63
2022/10/09 06:19:39;;;;;;;;;;;;;;;6.40;100.00;98968.41;7383433;19;19911;-60
2022/10/09 06:22:09;;;;;;;;;;;;;;;6.71;100.00;98969.94;7389160;19;20284;-61
2022/10/09 06:24:42;;;;;;;;;;;;;;;6.81;100.00;98979.19;7383292;19;19939;-62
2022/10/09 06:27:12;;;;;;;;;;;;;;;7.02;100.00;98975.81;7378229;19;20331;-60
2022/10/09 06:29:45;;;;;;;;;;;;;;;7.11;100.00;98983.34;7387340;19;19915;-63
2022/10/09 06:32:19;;;;;;;;;;;;;;;7.08;100.00;98980.84;7382736;19;19922;-65
2022/10/09 06:34:48;;;;;;;;;;;;;;;6.89;100.00;98979.78;7384905;19;19946;-60
2022/10/09 06:37:17;;;;;;;;;;;;;;;6.98;100.00;98984.69;7389215;19;19919;-60
2022/10/09 06:39:47;;;;;;;;;;;;;;;6.99;100.00;98977.69;7384379;19;19918;-66
2022/10/09 06:42:17;;;;;;;;;;;;;;;6.69;100.00;98997.06;7387794;19;19907;-60
2022/10/09 06:44:54;;;;;;;;;;;;;;;6.87;100.00;99007.72;7382088;19;19915;-60
2022/10/09 06:47:27;;;;;;;;;;;;;;;6.92;100.00;99000.59;7382613;19;19922;-61
2022/10/09 06:50:00;;;;;;;;;;;;;;;7.08;100.00;99000.91;7386546;19;20323;-62
2022/10/09 06:52:30;;;;;;;;;;;;;;;6.82;100.00;99004.44;7387501;19;19911;-62
2022/10/09 06:55:00;;;;;;;;;;;;;;;6.76;100.00;99019.47;7380145;19;20303;-61
2022/10/09 06:57:30;;;;;;;;;;;;;;;6.82;100.00;99020.13;7383481;19;19927;-62
2022/10/09 07:00:02;;;;;;;;;;;;;;;7.13;100.00;99018.16;7386574;19;20379;-61
2022/10/09 07:02:37;;;;;;;;;;;;;;;7.07;100.00;99021.00;7383821;19;19927;-61
2022/10/09 07:05:09;;;;;;;;;;;;;;;7.16;100.00;99036.38;7388849;19;19925;-61
2022/10/09 07:07:42;;;;;;;;;;;;;;;7.10;100.00;99033.97;7383764;19;19974;-63
2022/10/09 07:10:18;;;;;;;;;;;;;;;7.21;100.00;99037.06;7387265;19;19911;-61
2022/10/09 07:12:48;;;;;;;;;;;;;;;7.26;100.00;99026.44;7389204;19;19937;-61
2022/10/09 07:15:31;;;;;;;;;;;;;;;6.99;100.00;99027.41;7386978;19;19919;-59
2022/10/09 07:18:07;;;;;;;;;;;;;;;6.89;100.00;99026.88;7388602;19;19928;-59
2022/10/09 07:20:38;;;;;;;;;;;;;;;7.16;100.00;99025.03;7383803;19;20268;-61
2022/10/09 07:23:08;;;;;;;;;;;;;;;8.04;100.00;99029.66;7389609;19;19933;-60
2022/10/09 07:25:44;;;;;;;;;;;;;;;7.77;100.00;99041.19;7388434;19;19914;-60
2022/10/09 07:28:13;;;;;;;;;;;;;;;7.77;100.00;99033.31;7384613;19;19919;-60
2022/10/09 07:30:43;;;;;;;;;;;;;;;7.45;100.00;99038.84;7383121;19;19922;-59
2022/10/09 07:33:15;;;;;;;;;;;;;;;7.28;100.00;99043.78;7382073;19;19918;-69
2022/10/09 07:35:45;;;;;;;;;;;;;;;7.45;100.00;99051.91;7386582;19;20262;-61
2022/10/09 07:38:14;;;;;;;;;;;;;;;7.78;100.00;99058.59;7387076;19;19922;-63
2022/10/09 07:40:44;;;;;;;;;;;;;;;7.57;100.00;99054.09;7380558;19;19944;-68
2022/10/09 07:43:14;;;;;;;;;;;;;;;7.96;100.00;99057.91;7384534;19;20011;-62
2022/10/09 07:45:44;;;;;;;;;;;;;;;7.83;100.00;99064.50;7383884;19;20260;-63
2022/10/09 07:48:24;;;;;;;;;;;;;;;7.72;100.00;99060.56;7375206;19;20414;-67
2022/10/09 07:50:59;;;;;;;;;;;;;;;7.88;100.00;99059.97;7382520;19;19918;-59
2022/10/09 07:53:29;;;;;;;;;;;;;;;7.91;100.00;99067.69;7388030;19;19923;-59
2022/10/09 07:55:58;;;;;;;;;;;;;;;8.15;100.00;99063.28;7384659;19;19939;-60
2022/10/09 07:58:28;;;;;;;;;;;;;;;8.07;100.00;99065.38;7386407;19;19924;-60
2022/10/09 08:01:05;;;;;;;;;;;;;;;7.59;100.00;99078.47;7385315;19;19926;-65
2022/10/09 08:03:38;;;;;;;;;;;;;;;7.89;100.00;99072.16;7386048;19;19922;-59
2022/10/09 08:06:08;;;;;;;;;;;;;;;8.42;100.00;99077.13;7384994;19;20345;-61
2022/10/09 08:08:38;;;;;;;;;;;;;;;8.59;100.00;99083.41;7380419;19;19915;-62
2022/10/09 08:11:12;;;;;;;;;;;;;;;8.33;100.00;99082.75;7386265;19;19919;-60
2022/10/09 08:13:41;;;;;;;;;;;;;;;8.41;100.00;99081.50;7387469;19;20469;-60
2022/10/09 08:16:11;;;;;;;;;;;;;;;8.48;100.00;99076.91;7375800;19;20077;-60
2022/10/09 08:18:45;;;;;;;;;;;;;;;8.40;100.00;99081.56;7379462;19;19907;-60
2022/10/09 08:21:18;;;;;;;;;;;;;;;8.08;100.00;99082.78;7383283;19;19914;-60
2022/10/09 08:23:48;;;;;;;;;;;;;;;8.58;100.00;99083.47;7379216;19;20002;-60
2022/10/09 08:26:19;;;;;;;;;;;;;;;8.78;100.00;99086.16;7379123;19;19934;-60
2022/10/09 08:28:52;;;;;;;;;;;;;;;8.57;100.00;99085.25;7374171;19;19948;-67
2022/10/09 08:31:22;;;;;;;;;;;;;;;9.52;100.00;99076.03;7382823;19;19910;-63
2022/10/09 08:33:57;;;;;;;;;;;;;;;9.16;100.00;99075.81;7379145;19;19923;-61
2022/10/09 08:36:27;;;;;;;;;;;;;;;9.04;100.00;99083.34;7374727;19;20318;-61
2022/10/09 08:38:57;;;;;;;;;;;;;;;9.26;100.00;99084.97;7384028;19;19944;-61
2022/10/09 08:41:40;;;;;;;;;;;;;;;8.88;100.00;99077.84;7383873;19;20327;-61
2022/10/09 08:44:15;;;;;;;;;;;;;;;8.58;100.00;99099.19;7380594;19;21127;-61
2022/10/09 08:46:52;;;;;;;;;;;;;;;8.91;100.00;99088.22;7383881;19;19915;-61
2022/10/09 08:49:26;;;;;;;;;;;;;;;9.21;100.00;99097.47;7379010;19;19918;-53
2022/10/09 08:51:58;;;;;;;;;;;;;;;8.97;100.00;99098.50;7384476;19;19935;-53
2022/10/09 08:54:33;;;;;;;;;;;;;;;8.36;100.00;99093.94;7382176;19;19929;-65
2022/10/09 08:57:05;;;;;;;;;;;;;;;8.57;100.00;99102.75;7384177;19;20331;-60
2022/10/09 08:59:35;;;;;;;;;;;;;;;8.67;100.00;99101.47;7385234;19;19919;-61
2022/10/09 09:02:09;;;;;;;;;;;;;;;9.16;100.00;99096.81;7377139;19;19919;-60
2022/10/09 09:04:52;;;;;;;;;;;;;;;9.07;100.00;99098.97;7380313;19;19974;-52
2022/10/09 09:07:26;;;;;;;;;;;;;;;8.62;100.00;99112.16;7378357;19;19923;-64
2022/10/09 09:09:57;;;;;;;;;;;;;;;8.94;100.00;99103.00;7383094;19;19914;-63
2022/10/09 09:12:36;;;;;;;;;;;;;;;8.73;100.00;99109.09;7386682;19;19914;-62
2022/10/09 09:15:19;;;;;;;;;;;;;;;8.86;100.00;99111.19;7379622;19;19919;-59
2022/10/09 09:17:56;;;;;;;;;;;;;;;9.25;100.00;99108.69;7384542;19;19919;-62
2022/10/09 09:20:30;;;;;;;;;;;;;;;9.10;100.00;99104.06;7381665;19;19919;-63
2022/10/09 09:23:03;;;;;;;;;;;;;;;10.03;100.00;99089.50;7384762;19;19915;-59
2022/10/09 09:25:38;;;;;;;;;;;;;;;10.16;100.00;99101.16;7377542;19;19931;-62
2022/10/09 09:28:14;;;;;;;;;;;;;;;9.61;100.00;99104.53;7383082;19;19924;-61
2022/10/09 09:30:47;;;;;;;;;;;;;;;9.41;100.00;99104.53;7387248;19;20256;-61
2022/10/09 09:33:20;;;;;;;;;;;;;;;9.57;100.00;99110.81;7389983;19;19922;-61
2022/10/09 09:36:00;;;;;;;;;;;;;;;9.52;100.00;99113.66;7390993;19;19935;-60
2022/10/09 09:38:30;;;;;;;;;;;;;;;9.55;100.00;99102.19;7386675;19;19918;-60
2022/10/09 09:40:59;;;;;;;;;;;;;;;9.42;100.00;99114.13;7391522;19;20346;-62
2022/10/09 09:43:29;;;;;;;;;;;;;;;9.39;100.00;99103.72;7391544;19;19918;-58
2022/10/09 09:46:00;;;;;;;;;;;;;;;9.38;100.00;99104.66;7379772;19;19925;-63
2022/10/09 09:48:34;;;;;;;;;;;;;;;9.54;100.00;99106.56;7389892;19;19935;-59
2022/10/09 09:51:17;;;;;;;;;;;;;;;9.81;100.00;99099.25;7385222;19;19994;-61
2022/10/09 09:53:49;;;;;;;;;;;;;;;10.46;100.00;99091.84;7388859;19;19915;-58
2022/10/09 09:56:20;;;;;;;;;;;;;;;9.73;100.00;99094.34;7386339;19;19910;-62
2022/10/09 09:58:51;;;;;;;;;;;;;;;9.62;100.00;99099.19;7384052;19;19933;-62
2022/10/09 10:01:23;;;;;;;;;;;;;;;9.87;100.00;99101.59;7388750;19;19918;-54
2022/10/09 10:03:56;;;;;;;;;;;;;;;10.68;100.00;99092.56;7389951;19;19919;-51
2022/10/09 10:06:32;;;;;;;;;;;;;;;10.37;100.00;99081.75;7385559;19;19917;-63
2022/10/09 10:09:06;;;;;;;;;;;;;;;10.09;100.00;99094.47;7385120;19;19924;-63
2022/10/09 10:11:36;;;;;;;;;;;;;;;10.15;100.00;99095.06;7382319;19;19915;-51
2022/10/09 10:14:10;;;;;;;;;;;;;;;10.50;100.00;99093.41;7388146;19;20407;-55
2022/10/09 10:16:40;;;;;;;;;;;;;;;10.62;100.00;99095.47;7387660;19;19952;-49
2022/10/09 10:19:21;;;;;;;;;;;;;;;10.61;100.00;99097.25;7379340;19;19926;-52
2022/10/09 10:21:57;;;;;;;;;;;;;;;10.28;100.00;99100.59;7386534;19;19926;-50
2022/10/09 10:24:28;;;;;;;;;;;;;;;9.70;100.00;99101.50;7377141;19;19982;-59
2022/10/09 10:27:00;;;;;;;;;;;;;;;9.62;100.00;99104.47;7387170;19;20235;-59
2022/10/09 10:29:34;;;;;;;;;;;;;;;9.98;100.00;99102.84;7386698;19;19927;-59
2022/10/09 10:32:08;;;;;;;;;;;;;;;9.61;100.00;99101.88;7383569;19;19918;-59
2022/10/09 10:34:42;;;;;;;;;;;;;;;9.39;100.00;99104.59;7387245;19;19922;-59
2022/10/09 10:37:25;;;;;;;;;;;;;;;9.47;100.00;99099.88;7382173;19;19915;-58
2022/10/09 10:40:00;;;;;;;;;;;;;;;9.39;100.00;99108.97;7386930;19;19926;-59
2022/10/09 10:42:37;;;;;;;;;;;;;;;9.95;100.00;99102.97;7381312;19;19923;-57
2022/10/09 10:45:16;;;;;;;;;;;;;;;9.93;100.00;99099.56;7385299;19;19929;-59
2022/10/09 10:47:49;;;;;;;;;;;;;;;9.37;100.00;99105.59;7384074;19;19939;-57
2022/10/09 10:50:18;;;;;;;;;;;;;;;9.28;100.00;99109.41;7383554;19;19919;-59
2022/10/09 10:52:57;;;;;;;;;;;;;;;9.88;100.00;99105.97;7386787;19;20376;-59
2022/10/09 10:55:33;;;;;;;;;;;;;;;10.40;100.00;99094.78;7381341;19;19918;-57
2022/10/09 10:58:09;;;;;;;;;;;;;;;10.86;100.00;99083.78;7385752;19;20371;-54
2022/10/09 11:00:43;;;;;;;;;;;;;;;10.97;100.00;99090.25;7382958;19;20300;-58
2022/10/09 11:03:21;;;;;;;;;;;;;;;10.86;100.00;99094.31;7384465;19;19946;-59
2022/10/09 11:05:54;;;;;;;;;;;;;;;10.78;100.00;99093.84;7384196;19;19919;-60
2022/10/09 11:08:34;;;;;;;;;;;;;;;10.11;100.00;99096.13;7382900;19;19911;-59
2022/10/09 11:11:05;;;;;;;;;;;;;;;9.99;100.00;99099.28;7383494;19;19939;-60
2022/10/09 11:13:35;;;;;;;;;;;;;;;9.63;100.00;99094.81;7380340;19;19919;-56
2022/10/09 11:16:12;;;;;;;;;;;;;;;9.84;100.00;99096.50;7388478;19;19914;-59
2022/10/09 11:18:50;;;;;;;;;;;;;;;9.90;100.00;99096.22;7384994;19;19935;-58
2022/10/09 11:21:26;;;;;;;;;;;;;;;9.74;100.00;99100.44;7386761;19;19931;-59
2022/10/09 11:24:13;;;;;;;;;;;;;;;9.66;100.00;99090.25;7386428;19;19922;-57
2022/10/09 11:26:45;;;;;;;;;;;;;;;9.98;100.00;99092.31;7386567;19;19907;-56
2022/10/09 11:29:22;;;;;;;;;;;;;;;9.91;100.00;99090.03;7384533;19;19950;-56
2022/10/09 11:31:54;;;;;;;;;;;;;;;10.14;100.00;99087.25;7380335;19;20350;-57
2022/10/09 11:34:28;;;;;;;;;;;;;;;10.14;100.00;99095.97;7385065;19;19931;-58
2022/10/09 11:36:58;;;;;;;;;;;;;;;10.26;100.00;99089.28;7382218;19;19918;-59
2022/10/09 11:39:31;;;;;;;;;;;;;;;9.59;100.00;99091.44;7385103;19;20735;-59
2022/10/09 11:42:01;;;;;;;;;;;;;;;9.87;100.00;99088.47;7386358;19;19933;-59
2022/10/09 11:44:42;;;;;;;;;;;;;;;9.78;100.00;99088.88;7380940;19;20317;-59
2022/10/09 11:47:19;;;;;;;;;;;;;;;9.81;100.00;99088.75;7383546;19;19947;-60
2022/10/09 11:49:56;;;;;;;;;;;;;;;9.54;100.00;99082.06;7381950;19;19918;-59
2022/10/09 11:52:29;;;;;;;;;;;;;;;10.06;100.00;99081.47;7385274;19;19918;-60
2022/10/09 11:55:09;;;;;;;;;;;;;;;10.25;100.00;99070.03;7382303;19;19914;-57
2022/10/09 11:57:38;;;;;;;;;;;;;;;10.52;100.00;99078.41;7384809;19;19927;-57
2022/10/09 12:00:10;;;;;;;;;;;;;;;11.16;100.00;99079.63;7384993;19;19922;-57
2022/10/09 12:02:43;;;;;;;;;;;;;;;10.60;100.00;99079.75;7381469;19;19925;-62
2022/10/09 12:05:31;;;;;;;;;;;;;;;10.77;99.13;99068.44;7386975;19;19923;-59
2022/10/09 12:08:09;;;;;;;;;;;;;;;10.63;100.00;99073.47;7380630;19;19922;-61
2022/10/09 12:10:45;;;;;;;;;;;;;;;11.04;100.00;99072.34;7383728;19;20361;-61
2022/10/09 12:13:30;;;;;;;;;;;;;;;10.84;100.00;99080.38;7386029;19;19927;-60
2022/10/09 12:16:01;;;;;;;;;;;;;;;11.02;97.42;99067.16;7385968;19;19946;-61
2022/10/09 12:18:32;;;;;;;;;;;;;;;11.38;96.81;99061.81;7382966;19;19966;-61
2022/10/09 12:21:03;;;;;;;;;;;;;;;11.11;96.50;99063.22;7381794;19;20520;-60
2022/10/09 12:23:34;;;;;;;;;;;;;;;10.84;92.15;99059.31;7383879;19;19919;-60
2022/10/09 12:26:06;;;;;;;;;;;;;;;10.78;95.71;99049.09;7386690;19;19926;-59
2022/10/09 12:28:38;;;;;;;;;;;;;;;11.20;97.07;99045.16;7378203;19;19917;-61
2022/10/09 12:31:17;;;;;;;;;;;;;;;11.26;95.75;99051.91;7386591;19;20022;-63
2022/10/09 12:33:49;;;;;;;;;;;;;;;11.61;89.28;99050.09;7379830;19;19911;-62
2022/10/09 12:36:25;;;;;;;;;;;;;;;11.52;87.60;99048.78;7384277;19;19939;-63
2022/10/09 12:38:55;;;;;;;;;;;;;;;11.53;90.72;99052.28;7384584;19;19961;-62
2022/10/09 12:41:36;;;;;;;;;;;;;;;11.79;91.33;99041.22;7381162;19;19919;-62
2022/10/09 12:44:07;;;;;;;;;;;;;;;11.43;88.48;99041.38;7385727;19;19918;-65
2022/10/09 12:46:37;;;;;;;;;;;;;;;11.28;92.14;99036.88;7379877;19;19918;-63
2022/10/09 12:49:07;;;;;;;;;;;;;;;11.24;90.60;99045.88;7386398;19;19915;-59
2022/10/09 12:51:36;;;;;;;;;;;;;;;11.33;90.50;99046.25;7384823;19;19919;-59
2022/10/09 12:54:09;;;;;;;;;;;;;;;10.89;92.39;99044.16;7378962;19;19918;-59
2022/10/09 12:56:41;;;;;;;;;;;;;;;10.83;92.40;99057.59;7384226;19;20332;-59
2022/10/09 12:59:11;;;;;;;;;;;;;;;10.99;90.03;99040.13;7380853;19;19922;-59
2022/10/09 13:01:43;;;;;;;;;;;;;;;11.02;89.73;99050.53;7377943;19;19918;-60
2022/10/09 13:04:25;;;;;;;;;;;;;;;11.56;92.83;99046.88;7385180;19;19919;-64
2022/10/09 13:06:55;;;;;;;;;;;;;;;11.16;88.84;99037.50;7384502;19;19923;-59
2022/10/09 13:09:26;;;;;;;;;;;;;;;11.50;87.58;99040.13;7390879;19;19911;-59
2022/10/09 13:12:04;;;;;;;;;;;;;;;11.62;90.24;99042.13;7385971;19;19918;-60